Time;durP1;ratioP1;P1;durP2;ratioP2;P2;SDS_P1;SDS_P2;PMS_P1;PMS_P2;Temp;Humidity;BMP_temperature;BMP_pressure;BME280_temperature;BME280_humidity;BME280_pressure;Samples;Min_cycle;Max_cycle;Signal;HPM_P1;HPM_P2
2021/10/30 00:01:07;;;;;;;;;;;12.10;99.90;;;;;;5135003;28;19907;-67
2021/10/30 00:03:33;;;;;;;;;;;12.10;99.90;;;;;;5134653;28;19915;-68
2021/10/30 00:05:59;;;;;;;;;;;12.10;99.90;;;;;;5134932;28;19907;-68
2021/10/30 00:08:28;;;;;;;;;;;12.10;99.90;;;;;;5134599;28;19919;-70
2021/10/30 00:10:53;;;;;;;;;;;12.10;99.90;;;;;;5134893;28;19914;-71
2021/10/30 00:13:19;;;;;;;;;;;12.20;99.90;;;;;;5134512;28;19920;-71
2021/10/30 00:15:44;;;;;;;;;;;12.20;99.90;;;;;;5134493;28;19915;-68
2021/10/30 00:18:10;;;;;;;;;;;12.30;99.90;;;;;;5134803;28;19908;-67
2021/10/30 00:20:35;;;;;;;;;;;12.30;99.90;;;;;;5134506;28;20279;-69
2021/10/30 00:23:01;;;;;;;;;;;12.40;99.90;;;;;;5134975;27;19915;-71
2021/10/30 00:25:27;;;;;;;;;;;12.40;99.90;;;;;;5134456;28;20371;-70
2021/10/30 00:27:52;;;;;;;;;;;12.40;99.90;;;;;;5134743;28;20435;-69
2021/10/30 00:30:18;;;;;;;;;;;12.50;99.90;;;;;;5134444;28;20268;-71
2021/10/30 00:32:43;;;;;;;;;;;12.50;99.90;;;;;;5134383;28;19911;-71
2021/10/30 00:35:09;;;;;;;;;;;12.50;99.90;;;;;;5134357;28;19907;-69
2021/10/30 00:37:34;;;;;;;;;;;12.50;99.90;;;;;;5134499;28;19919;-69
2021/10/30 00:40:00;;;;;;;;;;;12.60;99.90;;;;;;5134286;28;19914;-70
2021/10/30 00:42:25;;;;;;;;;;;12.60;99.90;;;;;;5134572;28;19911;-69
2021/10/30 00:44:51;;;;;;;;;;;12.60;99.90;;;;;;5134318;28;19915;-69
2021/10/30 00:47:16;;;;;;;;;;;12.60;99.90;;;;;;5134833;28;19915;-71
2021/10/30 00:49:43;;;;;;;;;;;12.60;99.90;;;;;;5134252;28;19915;-71
2021/10/30 00:52:09;;;;;;;;;;;12.70;99.90;;;;;;5134529;28;19914;-69
2021/10/30 00:54:37;;;;;;;;;;;12.70;99.90;;;;;;5134202;28;19911;-68
2021/10/30 00:57:03;;;;;;;;;;;12.80;99.90;;;;;;5134133;27;19912;-71
2021/10/30 00:59:29;;;;;;;;;;;12.80;99.90;;;;;;5138226;27;19908;-71
2021/10/30 01:01:55;;;;;;;;;;;12.80;99.90;;;;;;5137900;27;19919;-71
2021/10/30 01:04:20;;;;;;;;;;;12.80;99.90;;;;;;5138168;27;20331;-69
2021/10/30 01:06:47;;;;;;;;;;;12.80;99.90;;;;;;5137851;27;19976;-70
2021/10/30 01:09:13;;;;;;;;;;;12.90;99.90;;;;;;5137749;27;20299;-69
2021/10/30 01:11:40;;;;;;;;;;;12.90;99.90;;;;;;5138291;27;19908;-71
2021/10/30 01:14:07;;;;;;;;;;;12.90;99.90;;;;;;5137474;27;19919;-70
2021/10/30 01:16:32;;;;;;;;;;;12.90;99.90;;;;;;5119106;27;19919;-70
2021/10/30 01:19:00;;;;;;;;;;;12.90;99.90;;;;;;5137624;27;20294;-69
2021/10/30 01:21:25;;;;;;;;;;;13.00;99.90;;;;;;5137843;27;19915;-70
2021/10/30 01:23:51;;;;;;;;;;;13.00;99.90;;;;;;5137441;27;19915;-70
2021/10/30 01:26:19;;;;;;;;;;;13.00;99.90;;;;;;5137552;27;19914;-71
2021/10/30 01:28:44;;;;;;;;;;;13.00;99.90;;;;;;5137684;27;20423;-68
2021/10/30 01:31:10;;;;;;;;;;;13.10;99.90;;;;;;5137407;27;19907;-67
2021/10/30 01:33:35;;;;;;;;;;;13.00;99.90;;;;;;5137651;27;19947;-70
2021/10/30 01:36:07;;;;;;;;;;;13.10;99.90;;;;;;5137198;27;19955;-71
2021/10/30 01:38:33;;;;;;;;;;;13.10;99.90;;;;;;5137254;27;20317;-71
2021/10/30 01:40:58;;;;;;;;;;;13.10;99.90;;;;;;5137190;27;19908;-71
2021/10/30 01:43:24;;;;;;;;;;;13.10;99.90;;;;;;5137105;27;20421;-69
2021/10/30 01:45:49;;;;;;;;;;;13.10;99.90;;;;;;5137647;27;19907;-70
2021/10/30 01:48:15;;;;;;;;;;;13.10;99.90;;;;;;5137052;27;19914;-69
2021/10/30 01:50:41;;;;;;;;;;;13.10;99.90;;;;;;5136953;27;20294;-69
2021/10/30 01:53:07;;;;;;;;;;;13.10;99.90;;;;;;5136934;27;19942;-69
2021/10/30 01:55:33;;;;;;;;;;;13.10;99.90;;;;;;5137262;27;19955;-70
2021/10/30 01:57:59;;;;;;;;;;;13.10;99.90;;;;;;5136792;27;19912;-69
2021/10/30 02:00:25;;;;;;;;;;;13.10;99.90;;;;;;5136806;27;19918;-69
2021/10/30 02:02:51;;;;;;;;;;;13.20;99.90;;;;;;5136762;27;19908;-71
2021/10/30 02:05:16;;;;;;;;;;;13.20;99.90;;;;;;5136692;27;19908;-71
2021/10/30 02:07:42;;;;;;;;;;;13.20;99.90;;;;;;5136645;27;20010;-71
2021/10/30 02:10:09;;;;;;;;;;;13.20;99.90;;;;;;5135581;27;20367;-67
2021/10/30 02:12:34;;;;;;;;;;;13.20;99.90;;;;;;5136321;27;20290;-70
2021/10/30 02:15:00;;;;;;;;;;;13.20;99.90;;;;;;5137122;27;20003;-70
2021/10/30 02:17:26;;;;;;;;;;;13.20;99.90;;;;;;5136665;27;20329;-71
2021/10/30 02:19:52;;;;;;;;;;;13.20;99.90;;;;;;5136690;27;19916;-71
2021/10/30 02:22:17;;;;;;;;;;;13.20;99.90;;;;;;5136337;27;19946;-70
2021/10/30 02:24:43;;;;;;;;;;;13.20;99.90;;;;;;5136348;27;19907;-68
2021/10/30 02:27:09;;;;;;;;;;;13.20;99.90;;;;;;5136604;27;19952;-69
2021/10/30 02:29:34;;;;;;;;;;;13.20;99.90;;;;;;5136191;27;20265;-69
2021/10/30 02:32:01;;;;;;;;;;;13.20;99.90;;;;;;5136168;27;19969;-67
2021/10/30 02:34:28;;;;;;;;;;;13.20;99.90;;;;;;5136113;27;19936;-68
2021/10/30 02:36:53;;;;;;;;;;;13.30;99.90;;;;;;5136285;27;19912;-70
2021/10/30 02:39:19;;;;;;;;;;;13.30;99.90;;;;;;5136046;27;20287;-71
2021/10/30 02:41:44;;;;;;;;;;;13.30;99.90;;;;;;5135956;27;20389;-69
2021/10/30 02:44:10;;;;;;;;;;;13.20;99.90;;;;;;5135914;27;19915;-69
2021/10/30 02:46:35;;;;;;;;;;;13.30;99.90;;;;;;5135825;27;19908;-68
2021/10/30 02:49:02;;;;;;;;;;;13.20;99.90;;;;;;5117370;27;19914;-71
2021/10/30 02:51:28;;;;;;;;;;;13.30;99.90;;;;;;5117129;27;19943;-69
2021/10/30 02:53:54;;;;;;;;;;;13.30;99.90;;;;;;5135705;27;19907;-71
2021/10/30 02:56:19;;;;;;;;;;;13.30;99.90;;;;;;5135505;27;19918;-70
2021/10/30 02:58:45;;;;;;;;;;;13.30;99.90;;;;;;5135677;27;19918;-71
2021/10/30 03:01:10;;;;;;;;;;;13.30;99.90;;;;;;5135890;27;19908;-69
2021/10/30 03:03:36;;;;;;;;;;;13.30;99.90;;;;;;5135528;27;20305;-68
2021/10/30 03:06:01;;;;;;;;;;;13.40;99.90;;;;;;5135503;27;19960;-70
2021/10/30 03:08:27;;;;;;;;;;;13.40;99.90;;;;;;5117055;27;19908;-72
2021/10/30 03:10:52;;;;;;;;;;;13.30;99.90;;;;;;5135999;27;19957;-71
2021/10/30 03:13:18;;;;;;;;;;;13.40;99.90;;;;;;5135194;27;19926;-69
2021/10/30 03:15:43;;;;;;;;;;;13.40;99.90;;;;;;5135549;27;20374;-69
2021/10/30 03:18:09;;;;;;;;;;;13.40;99.90;;;;;;5135321;27;19914;-69
2021/10/30 03:20:34;;;;;;;;;;;13.40;99.90;;;;;;5135069;27;19918;-71
2021/10/30 03:23:00;;;;;;;;;;;13.40;99.90;;;;;;5135738;27;19998;-71
2021/10/30 03:25:26;;;;;;;;;;;13.40;99.90;;;;;;5135201;27;19937;-70
2021/10/30 03:27:51;;;;;;;;;;;13.50;99.90;;;;;;5135657;27;19908;-68
2021/10/30 03:30:17;;;;;;;;;;;13.40;99.90;;;;;;5135380;27;19912;-67
2021/10/30 03:32:42;;;;;;;;;;;13.40;99.90;;;;;;5135056;27;19907;-71
2021/10/30 03:35:08;;;;;;;;;;;13.50;99.90;;;;;;5135285;27;19912;-70
2021/10/30 03:37:35;;;;;;;;;;;13.50;99.90;;;;;;5134898;27;20263;-69
2021/10/30 03:40:00;;;;;;;;;;;13.50;99.90;;;;;;5135564;27;19907;-70
2021/10/30 03:42:26;;;;;;;;;;;13.50;99.90;;;;;;5135165;27;19947;-71
2021/10/30 03:44:52;;;;;;;;;;;13.50;99.90;;;;;;5134941;27;19930;-71
2021/10/30 03:47:17;;;;;;;;;;;13.50;99.90;;;;;;5134842;27;19907;-72
2021/10/30 03:49:43;;;;;;;;;;;13.50;99.90;;;;;;5135132;27;19914;-69
2021/10/30 03:52:09;;;;;;;;;;;13.50;99.90;;;;;;5134804;27;20316;-68
2021/10/30 03:54:34;;;;;;;;;;;13.60;99.90;;;;;;5135340;27;20009;-71
2021/10/30 03:57:00;;;;;;;;;;;13.50;99.90;;;;;;5134630;27;20355;-71
2021/10/30 03:59:25;;;;;;;;;;;13.60;99.90;;;;;;5135008;27;19957;-69
2021/10/30 04:01:51;;;;;;;;;;;13.60;99.90;;;;;;5134671;28;19907;-69
2021/10/30 04:04:16;;;;;;;;;;;13.60;99.90;;;;;;5134669;28;20271;-70
2021/10/30 04:06:42;;;;;;;;;;;13.60;99.90;;;;;;5134696;28;19952;-70
2021/10/30 04:09:07;;;;;;;;;;;13.60;99.90;;;;;;5134623;28;19935;-70
2021/10/30 04:11:33;;;;;;;;;;;13.70;99.90;;;;;;5134638;28;19907;-68
2021/10/30 04:13:59;;;;;;;;;;;13.70;99.90;;;;;;5134388;28;19919;-70
2021/10/30 04:16:24;;;;;;;;;;;13.70;99.90;;;;;;5135319;28;19915;-69
2021/10/30 04:18:50;;;;;;;;;;;13.70;99.90;;;;;;5134803;28;19930;-67
2021/10/30 04:21:16;;;;;;;;;;;13.70;99.90;;;;;;5134500;28;19907;-70
2021/10/30 04:23:41;;;;;;;;;;;13.80;99.90;;;;;;5134474;27;19907;-70
2021/10/30 04:26:07;;;;;;;;;;;13.70;99.90;;;;;;5134504;28;19946;-69
2021/10/30 04:28:33;;;;;;;;;;;13.70;99.90;;;;;;5134732;28;19953;-69
2021/10/30 04:31:02;;;;;;;;;;;13.80;99.90;;;;;;5134389;28;19908;-71
2021/10/30 04:33:28;;;;;;;;;;;13.70;99.90;;;;;;5117973;27;19907;-72
2021/10/30 04:35:54;;;;;;;;;;;13.70;99.90;;;;;;5138655;27;19908;-68
2021/10/30 04:38:19;;;;;;;;;;;13.70;99.90;;;;;;5138395;27;19907;-71
2021/10/30 04:40:45;;;;;;;;;;;13.70;99.90;;;;;;5138377;27;19911;-71
2021/10/30 04:43:11;;;;;;;;;;;13.70;99.90;;;;;;5138336;27;19957;-69
2021/10/30 04:45:40;;;;;;;;;;;13.70;99.90;;;;;;5138546;27;20333;-71
2021/10/30 04:48:06;;;;;;;;;;;13.70;99.90;;;;;;5138231;27;19998;-68
2021/10/30 04:50:31;;;;;;;;;;;13.70;99.90;;;;;;5138146;27;20007;-69
2021/10/30 04:52:57;;;;;;;;;;;13.70;99.90;;;;;;5138081;27;19914;-70
2021/10/30 04:55:22;;;;;;;;;;;13.70;99.90;;;;;;5138061;27;19908;-69
2021/10/30 04:57:48;;;;;;;;;;;13.70;99.90;;;;;;5137963;27;19912;-71
2021/10/30 05:00:14;;;;;;;;;;;13.70;99.90;;;;;;5138270;27;20279;-69
2021/10/30 05:02:39;;;;;;;;;;;13.80;99.90;;;;;;5137916;27;19907;-69
2021/10/30 05:05:05;;;;;;;;;;;13.70;99.90;;;;;;5138195;27;19954;-71
2021/10/30 05:07:30;;;;;;;;;;;13.80;99.90;;;;;;5137868;27;19908;-69
2021/10/30 05:09:56;;;;;;;;;;;13.80;99.90;;;;;;5138076;27;20379;-69
2021/10/30 05:12:21;;;;;;;;;;;13.80;99.90;;;;;;5137754;27;19959;-70
2021/10/30 05:14:47;;;;;;;;;;;13.80;99.90;;;;;;5137276;27;20005;-70
2021/10/30 05:17:12;;;;;;;;;;;13.80;99.90;;;;;;5137874;27;19954;-71
2021/10/30 05:19:38;;;;;;;;;;;13.80;99.90;;;;;;5137653;27;19907;-70
2021/10/30 05:22:03;;;;;;;;;;;13.80;99.90;;;;;;5137804;27;19974;-69
2021/10/30 05:24:29;;;;;;;;;;;13.80;99.90;;;;;;5137544;27;19913;-69
2021/10/30 05:26:55;;;;;;;;;;;13.80;99.90;;;;;;5137467;27;19912;-70
2021/10/30 05:29:20;;;;;;;;;;;13.80;99.90;;;;;;5137706;27;19907;-71
2021/10/30 05:31:46;;;;;;;;;;;13.80;99.90;;;;;;5137377;27;19908;-68
2021/10/30 05:34:11;;;;;;;;;;;13.90;99.90;;;;;;5137616;27;19915;-70
2021/10/30 05:36:38;;;;;;;;;;;13.80;99.90;;;;;;5137194;27;19919;-69
2021/10/30 05:39:06;;;;;;;;;;;13.80;99.90;;;;;;5137245;27;19907;-70
2021/10/30 05:41:31;;;;;;;;;;;13.80;99.90;;;;;;5137196;27;19908;-68
2021/10/30 05:43:57;;;;;;;;;;;13.90;99.90;;;;;;5137676;27;19956;-69
2021/10/30 05:46:23;;;;;;;;;;;13.90;99.90;;;;;;5137128;27;19908;-70
2021/10/30 05:48:51;;;;;;;;;;;13.90;99.90;;;;;;5137688;27;19911;-69
2021/10/30 05:51:16;;;;;;;;;;;13.90;99.90;;;;;;5137038;27;20377;-71
2021/10/30 05:53:42;;;;;;;;;;;13.80;99.90;;;;;;5137231;27;19915;-70
2021/10/30 05:56:07;;;;;;;;;;;13.80;99.90;;;;;;5136827;27;19998;-70
2021/10/30 05:58:33;;;;;;;;;;;13.80;99.90;;;;;;5137149;27;20336;-70
2021/10/30 06:00:59;;;;;;;;;;;13.80;99.90;;;;;;5136781;27;19907;-69
2021/10/30 06:03:24;;;;;;;;;;;13.80;99.90;;;;;;5137126;27;19964;-72
2021/10/30 06:05:50;;;;;;;;;;;13.70;99.90;;;;;;5136712;27;20331;-69
2021/10/30 06:08:15;;;;;;;;;;;13.70;99.90;;;;;;5136959;27;19907;-70
2021/10/30 06:10:41;;;;;;;;;;;13.70;99.90;;;;;;5136640;27;20379;-71
2021/10/30 06:13:06;;;;;;;;;;;13.60;99.90;;;;;;5136565;27;20290;-70
2021/10/30 06:15:32;;;;;;;;;;;13.70;99.90;;;;;;5137164;27;20348;-68
2021/10/30 06:17:57;;;;;;;;;;;13.70;99.90;;;;;;5136711;27;20002;-69
2021/10/30 06:20:23;;;;;;;;;;;13.60;99.90;;;;;;5136725;27;19908;-69
2021/10/30 06:22:48;;;;;;;;;;;13.60;99.90;;;;;;5136272;27;19908;-71
2021/10/30 06:25:14;;;;;;;;;;;13.60;99.90;;;;;;5136281;27;20491;-70
2021/10/30 06:27:40;;;;;;;;;;;13.60;99.90;;;;;;5136547;27;19960;-68
2021/10/30 06:30:07;;;;;;;;;;;13.60;99.90;;;;;;5136203;27;19908;-72
2021/10/30 06:32:33;;;;;;;;;;;13.60;99.90;;;;;;5136455;27;19908;-72
2021/10/30 06:34:58;;;;;;;;;;;13.50;99.90;;;;;;5136462;27;20287;-71
2021/10/30 06:37:24;;;;;;;;;;;13.50;99.90;;;;;;5135999;27;19919;-71
2021/10/30 06:39:49;;;;;;;;;;;13.60;99.90;;;;;;5136317;27;19952;-72
2021/10/30 06:42:15;;;;;;;;;;;13.60;99.90;;;;;;5135960;27;19957;-70
2021/10/30 06:44:41;;;;;;;;;;;13.50;99.90;;;;;;5136177;27;19912;-71
2021/10/30 06:47:07;;;;;;;;;;;13.50;99.90;;;;;;5135811;27;19911;-69
2021/10/30 06:49:32;;;;;;;;;;;13.50;99.90;;;;;;5136417;27;19916;-70
2021/10/30 06:51:58;;;;;;;;;;;13.50;99.90;;;;;;5135781;27;19919;-72
2021/10/30 06:54:25;;;;;;;;;;;13.40;99.90;;;;;;5135673;27;20393;-70
2021/10/30 06:56:50;;;;;;;;;;;13.40;99.90;;;;;;5135452;27;20006;-72
2021/10/30 06:59:16;;;;;;;;;;;13.40;99.90;;;;;;5117198;27;20000;-70
2021/10/30 07:01:42;;;;;;;;;;;13.30;99.90;;;;;;5135626;27;19915;-71
2021/10/30 07:04:08;;;;;;;;;;;13.30;99.90;;;;;;5135525;27;19907;-69
2021/10/30 07:06:33;;;;;;;;;;;13.40;99.90;;;;;;5135790;27;20361;-72
2021/10/30 07:08:59;;;;;;;;;;;13.50;99.90;;;;;;5135477;27;19915;-71
2021/10/30 07:11:25;;;;;;;;;;;13.40;99.90;;;;;;5135707;27;19912;-70
2021/10/30 07:13:50;;;;;;;;;;;13.30;99.90;;;;;;5135149;27;19919;-72
2021/10/30 07:16:16;;;;;;;;;;;13.30;99.90;;;;;;5135259;27;20321;-71
2021/10/30 07:18:43;;;;;;;;;;;13.40;99.90;;;;;;5135354;27;19908;-71
2021/10/30 07:21:08;;;;;;;;;;;13.30;99.90;;;;;;5135850;27;19951;-71
2021/10/30 07:23:34;;;;;;;;;;;13.30;99.90;;;;;;5135124;27;19946;-70
2021/10/30 07:26:00;;;;;;;;;;;13.30;99.90;;;;;;5135445;27;19907;-69
2021/10/30 07:28:25;;;;;;;;;;;13.30;99.90;;;;;;5135108;27;19980;-70
2021/10/30 07:30:51;;;;;;;;;;;13.20;99.90;;;;;;5135362;27;20011;-70
2021/10/30 07:33:17;;;;;;;;;;;13.20;99.90;;;;;;5135052;27;19913;-69
2021/10/30 07:35:42;;;;;;;;;;;13.20;99.90;;;;;;5135036;27;19908;-68
2021/10/30 07:38:08;;;;;;;;;;;13.20;99.90;;;;;;5135473;27;19955;-70
2021/10/30 07:40:33;;;;;;;;;;;13.20;99.90;;;;;;5134906;27;19907;-71
2021/10/30 07:42:59;;;;;;;;;;;13.20;99.90;;;;;;5134946;27;19915;-70
2021/10/30 07:45:25;;;;;;;;;;;13.30;99.90;;;;;;5135124;27;20373;-69
2021/10/30 07:47:51;;;;;;;;;;;13.20;99.90;;;;;;5134835;27;19908;-71
2021/10/30 07:50:17;;;;;;;;;;;13.30;99.90;;;;;;5135060;27;19908;-70
2021/10/30 07:52:43;;;;;;;;;;;13.30;99.90;;;;;;5134782;27;19907;-67
2021/10/30 07:55:08;;;;;;;;;;;13.30;99.90;;;;;;5134790;27;19908;-70
2021/10/30 07:57:34;;;;;;;;;;;13.30;99.90;;;;;;5134678;27;19912;-70
2021/10/30 08:00:00;;;;;;;;;;;13.30;99.90;;;;;;5134732;27;20002;-72
2021/10/30 08:02:26;;;;;;;;;;;13.30;99.90;;;;;;5135309;28;19907;-69
2021/10/30 08:04:51;;;;;;;;;;;13.30;99.90;;;;;;5134678;28;19907;-71
2021/10/30 08:07:17;;;;;;;;;;;13.30;99.90;;;;;;5134681;27;19908;-70
2021/10/30 08:09:43;;;;;;;;;;;13.30;99.90;;;;;;5139266;27;20256;-71
2021/10/30 08:12:10;;;;;;;;;;;13.30;99.90;;;;;;5138943;27;19907;-69
2021/10/30 08:14:36;;;;;;;;;;;13.30;99.90;;;;;;5138527;27;19920;-70
2021/10/30 08:17:01;;;;;;;;;;;13.30;99.90;;;;;;5138778;27;19918;-72
2021/10/30 08:19:27;;;;;;;;;;;13.40;99.90;;;;;;5138813;27;19908;-69
2021/10/30 08:21:52;;;;;;;;;;;13.40;99.90;;;;;;5139014;27;20006;-71
2021/10/30 08:24:18;;;;;;;;;;;13.50;99.90;;;;;;5138623;27;19907;-70
2021/10/30 08:26:43;;;;;;;;;;;13.40;99.90;;;;;;5138661;27;19907;-68
2021/10/30 08:29:09;;;;;;;;;;;13.50;99.90;;;;;;5138658;27;19908;-69
2021/10/30 08:31:34;;;;;;;;;;;13.50;99.90;;;;;;5138886;27;19911;-71
2021/10/30 08:34:00;;;;;;;;;;;13.50;99.90;;;;;;5138560;27;20283;-70
2021/10/30 08:36:26;;;;;;;;;;;13.50;99.90;;;;;;5138685;27;20426;-70
2021/10/30 08:38:52;;;;;;;;;;;13.50;99.90;;;;;;5138418;27;20002;-70
2021/10/30 08:41:18;;;;;;;;;;;13.50;99.90;;;;;;5138695;27;19947;-75
2021/10/30 08:43:43;;;;;;;;;;;13.50;99.90;;;;;;5138360;27;19914;-77
2021/10/30 08:46:09;;;;;;;;;;;13.60;99.90;;;;;;5137964;27;19908;-78
2021/10/30 08:48:34;;;;;;;;;;;13.70;99.90;;;;;;5138036;27;20492;-73
2021/10/30 08:51:02;;;;;;;;;;;13.80;99.90;;;;;;5138128;27;19907;-76
2021/10/30 08:53:27;;;;;;;;;;;13.90;99.90;;;;;;5137947;27;20386;-72
2021/10/30 08:55:53;;;;;;;;;;;14.00;99.90;;;;;;5138505;27;19907;-75
2021/10/30 08:58:20;;;;;;;;;;;14.00;99.90;;;;;;5138079;27;19914;-73
2021/10/30 09:00:50;;;;;;;;;;;14.00;99.90;;;;;;5138540;27;20382;-73
2021/10/30 09:03:18;;;;;;;;;;;14.10;99.90;;;;;;5137921;27;19912;-72
2021/10/30 09:05:45;;;;;;;;;;;14.20;99.90;;;;;;5138151;27;20347;-72
2021/10/30 09:08:11;;;;;;;;;;;14.20;99.90;;;;;;5137889;27;20383;-72
2021/10/30 09:10:38;;;;;;;;;;;14.40;99.90;;;;;;5137849;27;20328;-75
2021/10/30 09:13:05;;;;;;;;;;;14.60;99.90;;;;;;5137958;27;19923;-72
2021/10/30 09:15:32;;;;;;;;;;;14.90;99.90;;;;;;5138289;27;19907;-72
2021/10/30 09:17:59;;;;;;;;;;;15.20;99.90;;;;;;5137866;27;19912;-72
2021/10/30 09:20:31;;;;;;;;;;;15.40;99.90;;;;;;5118686;27;19999;-76
2021/10/30 09:22:57;;;;;;;;;;;15.50;99.90;;;;;;5119051;27;19956;-70
2021/10/30 09:25:22;;;;;;;;;;;15.60;99.90;;;;;;5137700;27;19911;-77
2021/10/30 09:27:48;;;;;;;;;;;15.60;99.90;;;;;;5137693;27;19908;-73
2021/10/30 09:30:14;;;;;;;;;;;15.50;99.90;;;;;;5138075;27;20240;-74
2021/10/30 09:32:41;;;;;;;;;;;15.50;99.90;;;;;;5137294;27;19947;-78
2021/10/30 09:35:08;;;;;;;;;;;15.60;99.90;;;;;;5137600;27;20040;-75
2021/10/30 09:37:34;;;;;;;;;;;15.50;99.90;;;;;;5137110;27;19918;-74
2021/10/30 09:40:35;;;;;;;;;;;15.60;99.90;;;;;;5137549;27;19959;-74
2021/10/30 09:43:08;;;;;;;;;;;15.50;99.90;;;;;;5033939;28;19912;-76
2021/10/30 09:45:45;;;;;;;;;;;15.50;99.90;;;;;;5102606;27;20291;-74
2021/10/30 09:48:12;;;;;;;;;;;15.50;99.90;;;;;;5137744;27;19907;-75
2021/10/30 09:50:37;;;;;;;;;;;15.60;99.90;;;;;;5137275;27;19919;-74
2021/10/30 09:53:22;;;;;;;;;;;15.80;99.90;;;;;;5137358;27;19908;-74
2021/10/30 09:55:52;;;;;;;;;;;15.90;99.90;;;;;;5136928;27;19908;-70
2021/10/30 09:58:25;;;;;;;;;;;15.90;99.90;;;;;;5137127;27;19911;-70
2021/10/30 10:00:51;;;;;;;;;;;15.90;99.90;;;;;;5136523;27;19908;-72
2021/10/30 10:03:17;;;;;;;;;;;16.00;99.90;;;;;;5135737;27;20296;-73
2021/10/30 10:05:43;;;;;;;;;;;16.00;99.90;;;;;;5136173;27;19998;-74
2021/10/30 10:08:09;;;;;;;;;;;16.00;99.90;;;;;;5136023;27;19946;-71
2021/10/30 10:10:35;;;;;;;;;;;15.90;99.90;;;;;;5135235;27;19943;-73
2021/10/30 10:13:01;;;;;;;;;;;15.90;99.90;;;;;;5134529;27;20267;-71
2021/10/30 10:15:26;;;;;;;;;;;16.00;99.90;;;;;;5136114;27;20291;-74
2021/10/30 10:17:52;;;;;;;;;;;15.90;99.90;;;;;;5136777;27;19912;-70
2021/10/30 10:20:19;;;;;;;;;;;15.90;99.90;;;;;;5136486;27;20367;-73
2021/10/30 10:22:45;;;;;;;;;;;15.90;99.90;;;;;;5136334;27;19915;-70
2021/10/30 10:25:26;;;;;;;;;;;15.80;99.90;;;;;;5136946;27;19994;-71
2021/10/30 10:27:51;;;;;;;;;;;15.70;99.90;;;;;;5136300;27;20006;-73
2021/10/30 10:30:17;;;;;;;;;;;15.80;99.90;;;;;;5135956;27;19954;-72
2021/10/30 10:32:42;;;;;;;;;;;15.90;99.90;;;;;;5136182;27;19907;-73
2021/10/30 10:35:13;;;;;;;;;;;16.00;99.90;;;;;;5136409;27;19914;-74
2021/10/30 10:37:46;;;;;;;;;;;15.90;99.90;;;;;;5136038;27;19911;-75
2021/10/30 10:40:31;;;;;;;;;;;15.90;99.90;;;;;;5136384;27;19983;-71
2021/10/30 10:42:57;;;;;;;;;;;15.80;99.90;;;;;;5136003;27;20402;-74
2021/10/30 10:45:22;;;;;;;;;;;15.80;99.90;;;;;;5136230;27;19908;-73
2021/10/30 10:47:50;;;;;;;;;;;15.70;99.90;;;;;;5136205;27;19907;-74
2021/10/30 10:50:25;;;;;;;;;;;15.70;99.90;;;;;;5135847;27;19998;-74
2021/10/30 10:52:53;;;;;;;;;;;15.70;99.90;;;;;;5135803;27;20002;-73
2021/10/30 10:55:19;;;;;;;;;;;15.70;99.90;;;;;;5136055;27;19908;-73
2021/10/30 10:57:46;;;;;;;;;;;15.70;99.90;;;;;;5135928;27;19922;-72
2021/10/30 11:00:11;;;;;;;;;;;15.70;99.90;;;;;;5135710;27;19914;-72
2021/10/30 11:02:40;;;;;;;;;;;15.50;99.90;;;;;;5135899;27;19997;-72
2021/10/30 11:05:05;;;;;;;;;;;15.50;99.90;;;;;;5135579;27;19998;-73
2021/10/30 11:07:31;;;;;;;;;;;15.60;99.90;;;;;;5135596;27;19935;-73
2021/10/30 11:10:00;;;;;;;;;;;15.60;99.90;;;;;;5135835;27;19930;-71
2021/10/30 11:12:26;;;;;;;;;;;15.60;99.90;;;;;;5135400;27;19915;-70
2021/10/30 11:15:01;;;;;;;;;;;15.70;99.90;;;;;;5135276;27;19923;-72
2021/10/30 11:17:33;;;;;;;;;;;15.70;99.90;;;;;;5135669;27;19964;-73
2021/10/30 11:20:10;;;;;;;;;;;15.80;99.90;;;;;;5134289;27;20396;-73
2021/10/30 11:22:36;;;;;;;;;;;15.80;99.90;;;;;;5135206;27;20006;-71
2021/10/30 11:25:02;;;;;;;;;;;15.90;99.90;;;;;;5135788;27;19935;-73
2021/10/30 11:27:28;;;;;;;;;;;15.90;99.90;;;;;;5135189;27;20002;-74
2021/10/30 11:29:53;;;;;;;;;;;15.80;99.90;;;;;;5135110;27;19993;-72
2021/10/30 11:32:20;;;;;;;;;;;15.80;99.90;;;;;;5135121;27;19911;-75
2021/10/30 11:34:50;;;;;;;;;;;15.80;99.90;;;;;;5135384;27;20397;-72
2021/10/30 11:37:15;;;;;;;;;;;15.80;99.90;;;;;;5134947;27;19966;-73
2021/10/30 11:39:44;;;;;;;;;;;15.90;99.90;;;;;;5135027;27;19907;-71
2021/10/30 11:42:10;;;;;;;;;;;15.90;99.90;;;;;;5135111;27;19914;-72
2021/10/30 11:44:51;;;;;;;;;;;15.80;99.90;;;;;;5134883;27;19933;-74
2021/10/30 11:47:20;;;;;;;;;;;15.80;99.90;;;;;;5135153;27;19949;-74
2021/10/30 11:49:46;;;;;;;;;;;15.90;99.90;;;;;;5134857;27;19938;-72
2021/10/30 11:52:12;;;;;;;;;;;16.00;99.90;;;;;;5134859;27;19972;-75
2021/10/30 11:54:37;;;;;;;;;;;16.00;99.90;;;;;;5134848;27;19991;-71
2021/10/30 11:57:04;;;;;;;;;;;16.00;99.90;;;;;;5134699;27;20386;-72
2021/10/30 11:59:30;;;;;;;;;;;16.00;99.90;;;;;;5135011;27;19914;-71
2021/10/30 12:01:55;;;;;;;;;;;16.00;99.90;;;;;;5116291;28;19912;-74
2021/10/30 12:04:22;;;;;;;;;;;15.90;99.90;;;;;;5134684;27;19954;-72
2021/10/30 12:06:52;;;;;;;;;;;16.00;99.90;;;;;;5134944;28;19908;-75
2021/10/30 12:09:19;;;;;;;;;;;16.10;99.90;;;;;;5134608;28;20286;-74
2021/10/30 12:11:45;;;;;;;;;;;16.10;99.90;;;;;;5135185;28;19956;-71
2021/10/30 12:14:10;;;;;;;;;;;16.10;99.90;;;;;;5134375;28;19967;-71
2021/10/30 12:16:36;;;;;;;;;;;16.10;99.90;;;;;;5134766;28;19958;-69
2021/10/30 12:19:02;;;;;;;;;;;16.10;99.90;;;;;;5134596;28;20350;-72
2021/10/30 12:21:32;;;;;;;;;;;16.20;99.90;;;;;;5134859;28;20363;-71
2021/10/30 12:23:59;;;;;;;;;;;16.20;99.90;;;;;;5134735;27;19942;-73
2021/10/30 12:26:32;;;;;;;;;;;16.10;99.90;;;;;;5135045;28;19911;-74
2021/10/30 12:29:30;;;;;;;;;;;16.10;99.90;;;;;;5134469;28;19907;-74
2021/10/30 12:31:58;;;;;;;;;;;16.10;99.90;;;;;;5078739;28;19918;-71
2021/10/30 12:34:25;;;;;;;;;;;16.10;99.90;;;;;;5134433;28;20279;-74
2021/10/30 12:36:50;;;;;;;;;;;16.00;99.90;;;;;;5134342;28;19918;-74
2021/10/30 12:39:17;;;;;;;;;;;16.00;99.90;;;;;;5134916;28;19908;-74
2021/10/30 12:41:42;;;;;;;;;;;16.10;99.90;;;;;;5134389;28;19939;-75
2021/10/30 12:44:08;;;;;;;;;;;16.10;99.90;;;;;;5134360;28;19908;-71
2021/10/30 12:46:50;;;;;;;;;;;16.10;99.90;;;;;;5134590;28;19908;-73
2021/10/30 12:49:15;;;;;;;;;;;16.30;99.90;;;;;;5134355;28;19907;-72
2021/10/30 12:51:41;;;;;;;;;;;16.20;99.90;;;;;;5134860;28;19914;-72
2021/10/30 12:54:08;;;;;;;;;;;16.20;99.90;;;;;;5135878;27;19907;-71
2021/10/30 12:56:41;;;;;;;;;;;16.20;99.90;;;;;;5138096;27;19911;-73
2021/10/30 12:59:09;;;;;;;;;;;16.20;99.90;;;;;;5138387;27;19914;-72
2021/10/30 13:01:34;;;;;;;;;;;16.20;99.90;;;;;;5138299;27;19914;-73
2021/10/30 13:04:00;;;;;;;;;;;16.20;99.90;;;;;;5138271;27;19908;-72
2021/10/30 13:06:26;;;;;;;;;;;16.20;99.90;;;;;;5137910;27;19912;-74
2021/10/30 13:08:53;;;;;;;;;;;16.10;99.90;;;;;;5137935;27;20354;-71
2021/10/30 13:11:19;;;;;;;;;;;16.10;99.90;;;;;;5137882;27;19914;-71
2021/10/30 13:13:45;;;;;;;;;;;16.10;99.90;;;;;;5137804;27;19919;-73
2021/10/30 13:16:11;;;;;;;;;;;16.10;99.90;;;;;;5137649;27;19934;-75
2021/10/30 13:18:36;;;;;;;;;;;16.10;99.90;;;;;;5137985;27;20399;-72
2021/10/30 13:21:02;;;;;;;;;;;16.20;99.90;;;;;;5137618;27;19930;-73
2021/10/30 13:23:28;;;;;;;;;;;16.20;99.90;;;;;;5137749;27;20371;-74
2021/10/30 13:25:53;;;;;;;;;;;16.20;99.90;;;;;;5137506;27;20431;-74
2021/10/30 13:28:19;;;;;;;;;;;16.10;99.90;;;;;;5137507;27;19907;-73
2021/10/30 13:30:45;;;;;;;;;;;16.10;99.90;;;;;;5138065;27;19908;-74
2021/10/30 13:33:11;;;;;;;;;;;16.10;99.90;;;;;;5137753;27;19986;-73
2021/10/30 13:35:36;;;;;;;;;;;16.10;99.90;;;;;;5137944;27;20369;-72
2021/10/30 13:38:02;;;;;;;;;;;16.10;99.90;;;;;;5137244;27;19911;-71
2021/10/30 13:40:27;;;;;;;;;;;16.20;99.90;;;;;;5137332;27;20386;-73
2021/10/30 13:42:53;;;;;;;;;;;16.20;99.90;;;;;;5137822;27;19986;-72
2021/10/30 13:45:19;;;;;;;;;;;16.30;99.90;;;;;;5137450;27;20312;-74
2021/10/30 13:47:44;;;;;;;;;;;16.30;99.90;;;;;;5137673;27;19998;-74
2021/10/30 13:50:10;;;;;;;;;;;16.30;99.90;;;;;;5137388;27;19914;-73
2021/10/30 13:52:35;;;;;;;;;;;16.40;99.90;;;;;;5137633;27;19918;-72
2021/10/30 13:55:01;;;;;;;;;;;16.40;99.90;;;;;;5137073;27;20268;-73
2021/10/30 13:57:27;;;;;;;;;;;16.50;99.90;;;;;;5137214;27;19955;-71
2021/10/30 13:59:52;;;;;;;;;;;16.40;99.90;;;;;;5136909;27;19907;-74
2021/10/30 14:02:18;;;;;;;;;;;16.40;99.90;;;;;;5136861;27;20313;-74
2021/10/30 14:04:44;;;;;;;;;;;16.30;99.90;;;;;;5136265;27;19907;-73
2021/10/30 14:07:09;;;;;;;;;;;16.30;99.90;;;;;;5136290;27;19907;-72
2021/10/30 14:09:35;;;;;;;;;;;16.30;99.90;;;;;;5136662;27;19907;-75
2021/10/30 14:12:00;;;;;;;;;;;16.30;99.90;;;;;;5136909;27;19907;-74